Williamsport Regional Airport
KIPT : rendu visible

Aérodrome :











RETROUVEZ-NOUS SUR...

 
LOGIN :

S'inscrire | Disclaimer

   EN    FR    IT 

 









Légende :    VFR   VFR Marginal   IFR   IFR Intensif   IFR Très Intensif
Visi : 
Plafond : 
>= 8 km
>= 3000ft
5 à 8 km
1000 à 3000 ft
1500m à 5 km
500 à 1000 ft
800 à 1500m
200 à 500 ft
< 800m
< 200 ft
Symboles :   Orages  Brouillard  Fortes neiges  Fortes précipitations  Vent > 20 kt






- Altitude de l'aérodrome : 529 ft
- Code IATA : IPT


KIPT - Williamsport Regional

DERNIER METAR :
  • 010754Z AUTO 21008KT 10SM OVC020 07/02 A2944 RMK AO2 SLP970 T00670022

METARs EXPIRÉS :
  • 010654Z AUTO 25007KT 10SM OVC019 07/03 A2944 RMK AO2 SLP970 T00670028
  • 010627Z AUTO 25005KT 10SM BKN019 OVC033 07/03 A2944 RMK AO2 T00720028
  • 010554Z AUTO 27009KT 10SM OVC034 08/03 A2943 RMK AO2 SLP967 T00780028 10106 20078 51007

TAF KIPT
Valide du 01 à 06h jusqu'au 02 à 06h UTC


010557Z 0106/0206 26010KT P6SM OVC035
FM010800 26010KT P6SM OVC030
FM011200 25012G19KT P6SM -SHRA OVC018
FM011700 25015G23KT P6SM OVC030
FM012000 26018G26KT P6SM BKN040
FIR KZNY / Amérique du Nord



MET'MAP, la Météo Aéronautique d'un coup d'oeil ! - Copyright ORBIFLY Décembre 2007 - Disclaimer

ORBIFLY MET'MAP TEAM :

Programmation & Développement : Alexandra Zaïnal
Sur une idée originale de : Baudouin d'Aumeries
Assistance à la programmation : Marc-Olivier Méhu
Soutien technique & logistique : Manuel Goepfert

Contact : metmap@orbifly.com




SOURCES & CREDITS :

   NOAA       Earth
Advisory